createdAt,value
2018-07-21T00:02:23.526Z,13.50
2018-07-21T00:04:51.826Z,17.00
2018-07-21T00:07:20.207Z,14.30
2018-07-21T00:09:48.575Z,15.00
2018-07-21T00:12:16.919Z,13.07
2018-07-21T00:14:45.406Z,18.53
2018-07-21T00:17:13.837Z,13.50
2018-07-21T00:19:42.146Z,12.77
2018-07-21T00:22:10.910Z,18.93
2018-07-21T00:24:39.709Z,12.43
2018-07-21T00:27:08.146Z,10.33
2018-07-21T00:29:36.555Z,18.97
2018-07-21T00:32:05.026Z,15.20
2018-07-21T00:34:33.521Z,11.37
2018-07-21T00:37:01.938Z,10.60
2018-07-21T00:39:30.285Z,11.60
2018-07-21T00:41:58.894Z,18.07
2018-07-21T00:44:27.544Z,11.80
2018-07-21T00:46:55.940Z,14.20
2018-07-21T00:49:24.298Z,11.90
2018-07-21T00:51:52.667Z,12.20
2018-07-21T00:54:21.217Z,18.27
2018-07-21T00:56:49.745Z,19.53
2018-07-21T00:59:18.120Z,14.80
2018-07-21T01:01:46.901Z,15.70
2018-07-21T01:04:15.290Z,19.23
2018-07-21T01:06:43.628Z,13.63
2018-07-21T01:09:12.047Z,18.53
2018-07-21T01:11:40.405Z,11.53
2018-07-21T01:14:08.760Z,12.50
2018-07-21T01:16:37.127Z,15.70
2018-07-21T01:19:05.614Z,12.80
2018-07-21T01:21:33.929Z,15.00
2018-07-21T01:24:02.385Z,13.87
2018-07-21T01:26:30.708Z,14.00
2018-07-21T01:28:59.131Z,12.30
2018-07-21T01:31:27.448Z,12.83
2018-07-21T01:33:56.010Z,12.73
2018-07-21T01:36:24.325Z,19.03
2018-07-21T01:38:52.765Z,13.43
2018-07-21T01:41:21.173Z,14.90
2018-07-21T01:43:49.974Z,13.40
2018-07-21T01:46:18.429Z,18.77
2018-07-21T01:48:48.250Z,17.17
2018-07-21T01:51:16.656Z,12.93
2018-07-21T01:53:45.127Z,17.83
2018-07-21T01:56:13.504Z,17.77
2018-07-21T01:58:41.931Z,21.40
2018-07-21T02:01:10.942Z,19.30
2018-07-21T02:03:40.280Z,15.30
2018-07-21T02:06:08.676Z,13.50
2018-07-21T02:08:37.053Z,12.30
2018-07-21T02:11:05.373Z,16.70
2018-07-21T02:13:33.736Z,12.80
2018-07-21T02:16:02.090Z,20.40
2018-07-21T02:18:30.389Z,13.77
2018-07-21T02:20:58.744Z,12.37
2018-07-21T02:23:27.111Z,17.13
2018-07-21T02:25:55.451Z,16.50
2018-07-21T02:28:23.745Z,18.63
2018-07-21T02:30:52.873Z,17.60
2018-07-21T02:33:21.208Z,15.17
2018-07-21T02:35:51.025Z,18.07
2018-07-21T02:38:19.565Z,21.43
2018-07-21T02:40:51.720Z,23.90
2018-07-21T02:43:20.168Z,14.70
2018-07-21T02:45:50.619Z,19.47
2018-07-21T02:48:19.017Z,23.30
2018-07-21T02:50:48.591Z,16.93
2018-07-21T02:53:16.982Z,14.33
2018-07-21T02:55:45.355Z,14.70
2018-07-21T02:58:13.709Z,18.10
2018-07-21T03:00:42.045Z,17.07
2018-07-21T03:03:10.413Z,11.73
2018-07-21T03:05:38.872Z,13.07
2018-07-21T03:08:07.278Z,17.00
2018-07-21T03:10:35.665Z,14.60
2018-07-21T03:13:05.062Z,17.63
2018-07-21T03:15:33.491Z,15.40
2018-07-21T03:18:01.850Z,17.17
2018-07-21T03:20:30.264Z,17.20
2018-07-21T03:22:58.629Z,24.63
2018-07-21T03:25:26.964Z,13.77
2018-07-21T03:27:55.683Z,18.23
2018-07-21T03:30:24.156Z,18.33
2018-07-21T03:32:53.021Z,27.57
2018-07-21T03:35:21.453Z,19.53
2018-07-21T03:37:53.310Z,25.17
2018-07-21T03:40:21.694Z,30.13
2018-07-21T03:42:51.660Z,17.03
2018-07-21T03:45:20.047Z,17.50
2018-07-21T03:47:49.869Z,18.57
2018-07-21T03:50:18.308Z,19.17
2018-07-21T03:52:46.759Z,19.53
2018-07-21T03:55:15.096Z,18.07
2018-07-21T03:57:43.574Z,19.33
2018-07-21T04:00:12.127Z,23.77
2018-07-21T04:02:40.552Z,17.73
2018-07-21T04:05:09.069Z,20.50
2018-07-21T04:07:37.485Z,23.03
2018-07-21T04:10:05.957Z,14.63
2018-07-21T04:12:34.325Z,18.90
2018-07-21T04:15:02.835Z,20.33
2018-07-21T04:17:31.334Z,20.33
2018-07-21T04:19:59.701Z,16.90
2018-07-21T04:22:28.158Z,19.47
2018-07-21T04:24:56.798Z,23.70
2018-07-21T04:27:25.222Z,18.47
2018-07-21T04:29:54.284Z,15.97
2018-07-21T04:32:22.789Z,20.83
2018-07-21T04:34:53.467Z,24.30
2018-07-21T04:37:21.900Z,18.40
2018-07-21T04:39:54.900Z,33.93
2018-07-21T04:42:23.301Z,21.20
2018-07-21T04:44:52.361Z,21.10
2018-07-21T04:47:21.022Z,18.67
2018-07-21T04:49:51.641Z,16.43
2018-07-21T04:52:20.035Z,17.90
2018-07-21T04:54:48.413Z,22.63
2018-07-21T04:57:16.812Z,23.83
2018-07-21T04:59:45.153Z,19.33
2018-07-21T05:02:13.529Z,17.23
2018-07-21T05:04:41.889Z,19.20
2018-07-21T05:07:10.211Z,17.33
2018-07-21T05:09:38.551Z,22.40
2018-07-21T05:12:06.996Z,21.80
2018-07-21T05:14:35.470Z,23.43
2018-07-21T05:17:03.832Z,26.33
2018-07-21T05:19:32.246Z,19.77
2018-07-21T05:22:00.545Z,19.33
2018-07-21T05:24:29.046Z,22.23
2018-07-21T05:26:57.425Z,18.03
2018-07-21T05:29:25.935Z,16.53
2018-07-21T05:31:54.278Z,15.40
2018-07-21T05:34:22.637Z,17.57
2018-07-21T05:36:51.440Z,25.73
2018-07-21T05:39:19.830Z,18.13
2018-07-21T05:41:48.528Z,19.83
2018-07-21T05:44:16.884Z,33.07
2018-07-21T05:46:45.274Z,20.03
2018-07-21T05:49:13.656Z,18.13
2018-07-21T05:51:42.024Z,18.53
2018-07-21T05:54:10.370Z,19.20
2018-07-21T05:56:39.791Z,31.03
2018-07-21T05:59:08.209Z,27.97
2018-07-21T06:01:36.575Z,20.53
2018-07-21T06:04:04.909Z,27.23
2018-07-21T06:06:33.276Z,21.30
2018-07-21T06:09:01.617Z,25.57
2018-07-21T06:11:30.022Z,22.03
2018-07-21T06:13:58.858Z,25.63
2018-07-21T06:16:27.179Z,25.40
2018-07-21T06:18:55.645Z,44.43
2018-07-21T06:21:24.225Z,23.67
2018-07-21T06:23:52.678Z,20.30
2018-07-21T06:26:21.157Z,17.77
2018-07-21T06:28:49.689Z,15.67
2018-07-21T06:31:18.046Z,14.90
2018-07-21T06:33:46.449Z,22.37
2018-07-21T06:36:14.851Z,16.53
2018-07-21T06:38:43.258Z,20.40
2018-07-21T06:41:11.710Z,22.27
2018-07-21T06:43:40.164Z,26.33
2018-07-21T06:46:08.967Z,22.70
2018-07-21T06:48:37.702Z,21.00
2018-07-21T06:51:06.178Z,23.90
2018-07-21T06:53:34.564Z,32.93
2018-07-21T06:56:03.604Z,21.43
2018-07-21T06:58:31.988Z,23.13
2018-07-21T07:01:00.404Z,36.63
2018-07-21T07:03:29.097Z,21.30
2018-07-21T07:05:57.637Z,29.93
2018-07-21T07:08:25.967Z,30.57
2018-07-21T07:10:54.305Z,32.80
2018-07-21T07:13:22.645Z,33.00
2018-07-21T07:15:51.041Z,35.13
2018-07-21T07:18:19.379Z,22.37
2018-07-21T07:20:47.698Z,26.20
2018-07-21T07:23:16.025Z,26.83
2018-07-21T07:25:44.344Z,31.17
2018-07-21T07:28:13.072Z,29.73
2018-07-21T07:30:41.453Z,27.30
2018-07-21T07:33:10.932Z,34.53
2018-07-21T07:35:39.331Z,31.73
2018-07-21T07:38:08.334Z,26.93
2018-07-21T07:40:37.073Z,30.43
2018-07-21T07:43:05.817Z,25.30
2018-07-21T07:45:34.173Z,38.80
2018-07-21T07:48:03.795Z,34.87
2018-07-21T07:50:32.305Z,27.53
2018-07-21T07:53:00.767Z,35.77
2018-07-21T07:55:33.918Z,37.80
2018-07-21T07:58:03.905Z,40.73
2018-07-21T08:00:32.873Z,35.97
2018-07-21T08:03:02.150Z,40.97
2018-07-21T08:05:30.666Z,34.87
2018-07-21T08:07:58.988Z,28.67
2018-07-21T08:10:28.106Z,36.83
2018-07-21T08:12:56.424Z,31.93
2018-07-21T08:15:24.819Z,31.53
2018-07-21T08:17:53.280Z,31.23
2018-07-21T08:20:21.658Z,36.50
2018-07-21T08:22:49.999Z,39.20
2018-07-21T08:25:18.356Z,39.47
2018-07-21T08:27:58.289Z,27.37
2018-07-21T08:30:31.242Z,45.47
2018-07-21T08:33:00.213Z,33.80
2018-07-21T08:35:29.531Z,34.10
2018-07-21T08:37:58.214Z,34.83
2018-07-21T08:40:27.039Z,39.20
2018-07-21T08:42:55.746Z,35.33
2018-07-21T08:45:24.348Z,34.33
2018-07-21T08:47:53.157Z,40.10
2018-07-21T08:50:22.633Z,43.33
2018-07-21T08:58:58.232Z,45.80
2018-07-21T09:01:27.295Z,40.37
2018-07-21T09:03:55.623Z,33.23
2018-07-21T09:06:24.006Z,41.73
2018-07-21T09:08:52.421Z,32.50
2018-07-21T09:11:20.757Z,40.03
2018-07-21T09:13:49.157Z,29.93
2018-07-21T09:16:17.514Z,30.87
2018-07-21T09:18:45.912Z,41.93
2018-07-21T09:21:14.297Z,24.70
2018-07-21T09:23:42.704Z,39.60
2018-07-21T09:26:11.071Z,40.07
2018-07-21T09:28:39.474Z,31.43
2018-07-21T09:31:07.922Z,32.90
2018-07-21T09:33:36.273Z,27.70
2018-07-21T09:36:04.654Z,29.20
2018-07-21T09:38:33.082Z,27.20
2018-07-21T09:41:03.023Z,29.27
2018-07-21T09:43:32.924Z,36.63
2018-07-21T09:46:03.405Z,27.60
2018-07-21T09:48:33.385Z,37.13
2018-07-21T09:51:01.733Z,25.67
2018-07-21T09:53:31.241Z,34.57
2018-07-21T09:55:59.707Z,30.93
2018-07-21T09:58:29.352Z,31.27
2018-07-21T10:01:02.417Z,23.43
2018-07-21T10:03:32.188Z,33.77
2018-07-21T10:06:00.537Z,23.57
2018-07-21T10:08:28.857Z,28.07
2018-07-21T10:10:58.111Z,21.13
2018-07-21T10:13:27.884Z,22.33
2018-07-21T10:15:56.190Z,18.80
2018-07-21T10:18:24.521Z,17.30
2018-07-21T10:20:52.845Z,18.80
2018-07-21T10:23:21.185Z,13.43
2018-07-21T10:25:54.773Z,22.27
2018-07-21T10:28:28.610Z,15.07
2018-07-21T10:30:56.970Z,24.57
2018-07-21T10:33:25.398Z,20.53
2018-07-21T10:35:53.649Z,12.40
2018-07-21T10:38:21.974Z,13.73
2018-07-21T10:40:50.323Z,12.80
2018-07-21T10:43:18.654Z,17.40
2018-07-21T10:45:47.030Z,16.80
2018-07-21T10:48:15.409Z,14.30
2018-07-21T10:50:43.864Z,17.30
2018-07-21T10:53:12.232Z,20.30
2018-07-21T10:55:40.549Z,23.07
2018-07-21T10:58:08.945Z,15.30
2018-07-21T11:00:37.288Z,16.03
2018-07-21T11:03:05.822Z,9.90
2018-07-21T11:05:37.311Z,9.90
2018-07-21T11:08:05.884Z,17.53
2018-07-21T11:10:34.198Z,16.73
2018-07-21T11:13:02.548Z,17.10
2018-07-21T11:15:30.912Z,20.10
2018-07-21T11:17:59.222Z,29.80
2018-07-21T11:20:27.628Z,16.73
2018-07-21T11:22:55.981Z,16.90
2018-07-21T11:25:24.485Z,20.57
2018-07-21T11:27:52.858Z,28.33
2018-07-21T11:30:21.306Z,18.60
2018-07-21T11:32:49.756Z,28.17
2018-07-21T11:35:18.282Z,16.53
2018-07-21T11:37:47.021Z,12.87
2018-07-21T11:40:15.600Z,16.90
2018-07-21T11:42:44.180Z,15.73
2018-07-21T11:45:12.667Z,16.30
2018-07-21T11:47:41.317Z,14.00
2018-07-21T11:50:09.833Z,11.23
2018-07-21T11:52:38.511Z,13.97
2018-07-21T11:55:07.106Z,10.93
2018-07-21T11:57:35.644Z,19.00
2018-07-21T12:00:04.117Z,14.00
2018-07-21T12:02:32.592Z,11.33
2018-07-21T12:05:00.961Z,11.40
2018-07-21T12:07:29.605Z,12.03
2018-07-21T12:09:58.151Z,15.70
2018-07-21T12:12:29.589Z,12.03
2018-07-21T12:14:58.236Z,17.60
2018-07-21T12:17:30.160Z,13.97
2018-07-21T12:19:58.865Z,11.70
2018-07-21T12:22:32.197Z,7.60
2018-07-21T12:25:00.755Z,12.70
2018-07-21T12:27:29.143Z,19.50
2018-07-21T12:29:57.573Z,9.50
2018-07-21T12:32:26.094Z,21.50
2018-07-21T12:34:54.593Z,28.70
2018-07-21T12:37:23.121Z,19.47
2018-07-21T12:39:51.607Z,11.83
2018-07-21T12:42:20.062Z,11.33
2018-07-21T12:44:48.705Z,11.83
2018-07-21T12:47:17.461Z,8.50
2018-07-21T12:49:45.957Z,12.53
2018-07-21T12:52:14.470Z,11.60
2018-07-21T12:54:42.951Z,19.63
2018-07-21T12:57:11.632Z,16.17
2018-07-21T12:59:40.228Z,12.50
2018-07-21T13:02:08.831Z,13.30
2018-07-21T13:04:37.392Z,10.10
2018-07-21T13:07:07.756Z,8.40
2018-07-21T13:09:36.311Z,19.07
2018-07-21T13:12:05.663Z,11.87
2018-07-21T13:14:34.152Z,16.70
2018-07-21T13:17:02.573Z,20.10
2018-07-21T13:19:31.730Z,10.60
2018-07-21T13:22:00.136Z,9.03
2018-07-21T13:24:29.749Z,12.50
2018-07-21T13:26:58.159Z,19.53
2018-07-21T13:29:26.598Z,10.67
2018-07-21T13:31:54.977Z,16.57
2018-07-21T13:34:23.422Z,14.90
2018-07-21T13:36:51.907Z,17.47
2018-07-21T13:39:21.557Z,11.50
2018-07-21T13:41:49.937Z,9.30
2018-07-21T13:44:18.464Z,17.60
2018-07-21T13:46:46.884Z,23.30
2018-07-21T13:49:15.278Z,15.80
2018-07-21T13:51:43.713Z,7.93
2018-07-21T13:54:12.990Z,13.63
2018-07-21T13:56:41.455Z,12.60
2018-07-21T13:59:09.929Z,7.90
2018-07-21T14:01:38.358Z,17.20
2018-07-21T14:04:06.953Z,11.50
2018-07-21T14:06:35.573Z,17.60
2018-07-21T14:09:06.042Z,16.10
2018-07-21T14:11:34.574Z,13.63
2018-07-21T14:14:02.941Z,12.33
2018-07-21T14:16:31.458Z,11.00
2018-07-21T14:18:59.826Z,15.20
2018-07-21T14:21:28.477Z,9.30
2018-07-21T14:23:56.935Z,10.03
2018-07-21T14:26:25.342Z,13.13
2018-07-21T14:28:53.744Z,8.47
2018-07-21T14:31:22.113Z,13.30
2018-07-21T14:33:50.575Z,11.40
2018-07-21T14:36:19.104Z,10.60
2018-07-21T14:38:47.354Z,11.17
2018-07-21T14:41:15.906Z,8.63
2018-07-21T14:43:44.403Z,8.73
2018-07-21T14:46:14.121Z,11.40
2018-07-21T14:48:42.581Z,12.10
2018-07-21T14:51:11.316Z,8.53
2018-07-21T14:53:39.823Z,12.27
2018-07-21T14:56:08.377Z,13.93
2018-07-21T14:58:37.280Z,19.73
2018-07-21T15:01:05.839Z,11.60
2018-07-21T15:03:34.250Z,11.43
2018-07-21T15:06:02.623Z,12.53
2018-07-21T15:08:31.040Z,12.10
2018-07-21T15:10:59.914Z,10.90
2018-07-21T15:13:28.332Z,7.90
2018-07-21T15:15:56.714Z,12.70
2018-07-21T15:18:25.253Z,17.87
2018-07-21T15:20:53.792Z,12.73
2018-07-21T15:23:22.733Z,7.70
2018-07-21T15:25:51.152Z,6.80
2018-07-21T15:28:19.579Z,6.40
2018-07-21T15:30:47.934Z,7.23
2018-07-21T15:33:16.334Z,8.20
2018-07-21T15:35:45.022Z,13.70
2018-07-21T15:38:13.427Z,9.77
2018-07-21T15:40:41.846Z,11.13
2018-07-21T15:43:10.280Z,12.63
2018-07-21T15:45:38.722Z,10.80
2018-07-21T15:48:07.219Z,11.57
2018-07-21T15:50:35.900Z,12.90
2018-07-21T15:53:04.490Z,13.90
2018-07-21T15:55:32.980Z,22.10
2018-07-21T15:58:01.435Z,12.00
2018-07-21T16:00:29.829Z,11.37
2018-07-21T16:02:58.316Z,10.93
2018-07-21T16:05:26.707Z,12.80
2018-07-21T16:07:55.117Z,8.60
2018-07-21T16:10:23.587Z,10.40
2018-07-21T16:12:52.209Z,8.50
2018-07-21T16:15:20.723Z,13.50
2018-07-21T16:17:49.071Z,7.30
2018-07-21T16:20:17.767Z,9.70
2018-07-21T16:22:46.509Z,8.10
2018-07-21T16:25:15.228Z,8.77
2018-07-21T16:27:44.787Z,6.53
2018-07-21T16:30:13.245Z,6.23
2018-07-21T16:32:41.882Z,7.53
2018-07-21T16:35:10.301Z,6.43
2018-07-21T16:37:38.757Z,11.03
2018-07-21T16:40:07.201Z,6.83
2018-07-21T16:42:35.588Z,8.60
2018-07-21T16:45:04.081Z,9.93
2018-07-21T16:47:32.451Z,10.63
2018-07-21T16:50:00.913Z,8.37
2018-07-21T16:52:29.401Z,9.57
2018-07-21T16:54:57.790Z,9.67
2018-07-21T16:57:26.169Z,15.67
2018-07-21T16:59:54.533Z,10.00
2018-07-21T17:02:22.865Z,8.67
2018-07-21T17:04:51.281Z,8.33
2018-07-21T17:07:19.626Z,19.37
2018-07-21T17:09:48.120Z,15.27
2018-07-21T17:12:16.484Z,17.27
2018-07-21T17:14:45.291Z,18.67
2018-07-21T17:17:13.852Z,12.43
2018-07-21T17:19:42.299Z,19.87
2018-07-21T17:22:10.729Z,13.33
2018-07-21T17:24:39.172Z,21.10
2018-07-21T17:27:07.631Z,14.87
2018-07-21T17:29:36.104Z,24.80
2018-07-21T17:32:04.451Z,19.80
2018-07-21T17:34:32.846Z,18.00
2018-07-21T17:37:01.262Z,18.83
2018-07-21T17:39:29.634Z,26.07
2018-07-21T17:41:58.065Z,17.00
2018-07-21T17:44:26.646Z,23.30
2018-07-21T17:46:55.006Z,17.00
2018-07-21T17:49:23.358Z,13.60
2018-07-21T17:51:51.850Z,15.23
2018-07-21T17:54:20.182Z,16.37
2018-07-21T17:56:49.644Z,17.40
2018-07-21T17:59:18.075Z,22.83
2018-07-21T18:01:48.273Z,19.37
2018-07-21T18:04:16.999Z,25.50
2018-07-21T18:06:45.579Z,13.97
2018-07-21T18:09:14.060Z,17.20
2018-07-21T18:11:42.868Z,27.57
2018-07-21T18:14:11.602Z,20.57
2018-07-21T18:16:39.920Z,14.33
2018-07-21T18:19:08.355Z,17.30
2018-07-21T18:21:36.754Z,18.30
2018-07-21T18:24:06.129Z,20.43
2018-07-21T18:26:34.546Z,26.37
2018-07-21T18:29:02.973Z,20.03
2018-07-21T18:31:31.394Z,21.40
2018-07-21T18:33:59.787Z,19.27
2018-07-21T18:36:28.222Z,22.23
2018-07-21T18:38:56.614Z,19.07
2018-07-21T18:41:25.069Z,27.87
2018-07-21T18:43:53.440Z,27.70
2018-07-21T18:46:21.833Z,18.43
2018-07-21T18:48:50.308Z,17.73
2018-07-21T18:51:18.680Z,19.00
2018-07-21T18:53:47.057Z,21.00
2018-07-21T18:56:15.445Z,19.87
2018-07-21T18:58:43.821Z,18.33
2018-07-21T19:01:12.213Z,32.70
2018-07-21T19:03:40.577Z,23.60
2018-07-21T19:06:08.971Z,19.27
2018-07-21T19:08:42.686Z,23.10
2018-07-21T19:11:11.041Z,25.93
2018-07-21T19:13:39.449Z,25.33
2018-07-21T19:16:13.537Z,30.20
2018-07-21T19:18:41.878Z,25.73
2018-07-21T19:21:17.316Z,25.00
2018-07-21T19:23:46.132Z,22.13
2018-07-21T19:26:19.859Z,27.13
2018-07-21T19:28:48.341Z,27.17
2018-07-21T19:31:16.721Z,24.20
2018-07-21T19:33:45.183Z,23.80
2018-07-21T19:36:13.553Z,20.53
2018-07-21T19:38:41.987Z,22.93
2018-07-21T19:41:15.585Z,20.73
2018-07-21T19:43:44.166Z,21.20
2018-07-21T19:46:12.862Z,15.67
2018-07-21T19:48:41.510Z,16.97
2018-07-21T19:51:09.924Z,16.67
2018-07-21T19:53:38.250Z,21.13
2018-07-21T19:56:06.625Z,26.23
2018-07-21T19:58:35.030Z,28.00
2018-07-21T20:01:03.407Z,23.10
2018-07-21T20:03:31.762Z,16.93
2018-07-21T20:06:00.189Z,25.43
2018-07-21T20:08:28.559Z,35.13
2018-07-21T20:10:57.037Z,22.40
2018-07-21T20:13:25.385Z,22.47
2018-07-21T20:15:54.278Z,22.37
2018-07-21T20:18:22.745Z,32.27
2018-07-21T20:20:51.159Z,20.67
2018-07-21T20:23:20.429Z,25.03
2018-07-21T20:25:48.796Z,18.53
2018-07-21T20:28:17.557Z,28.27
2018-07-21T20:30:46.102Z,27.27
2018-07-21T20:33:14.766Z,20.80
2018-07-21T20:35:43.253Z,21.70
2018-07-21T20:38:11.666Z,26.77
2018-07-21T20:40:40.884Z,31.13
2018-07-21T20:43:09.275Z,21.27
2018-07-21T20:45:37.997Z,18.37
2018-07-21T20:48:06.597Z,20.20
2018-07-21T20:50:35.413Z,30.93
2018-07-21T20:53:04.222Z,36.37
2018-07-21T20:55:32.933Z,25.97
2018-07-21T20:58:02.298Z,41.70
2018-07-21T21:00:31.582Z,29.37
2018-07-21T21:03:00.415Z,26.03
2018-07-21T21:05:28.849Z,30.47
2018-07-21T21:07:58.379Z,28.83
2018-07-21T21:10:28.176Z,20.40
2018-07-21T21:12:57.854Z,37.50
2018-07-21T21:15:27.095Z,30.33
2018-07-21T21:17:55.999Z,25.27
2018-07-21T21:20:24.809Z,28.63
2018-07-21T21:22:53.335Z,32.80
2018-07-21T21:25:22.018Z,32.43
2018-07-21T21:27:50.493Z,37.57
2018-07-21T21:30:19.071Z,32.43
2018-07-21T21:32:47.661Z,66.70
2018-07-21T21:35:16.214Z,35.57
2018-07-21T21:37:45.067Z,22.00
2018-07-21T21:40:30.975Z,25.43
2018-07-21T21:43:10.971Z,26.10
2018-07-21T22:20:26.603Z,32.20
2018-07-21T22:27:40.227Z,28.77
2018-07-21T22:30:14.551Z,27.50
2018-07-21T22:32:44.077Z,29.13
2018-07-21T22:35:13.832Z,31.47
2018-07-21T22:37:43.453Z,33.23
2018-07-21T22:40:13.100Z,24.87
2018-07-21T22:42:41.930Z,33.20
2018-07-21T22:45:10.518Z,31.37
2018-07-21T22:47:38.993Z,32.40
2018-07-21T22:50:07.692Z,33.90
2018-07-21T22:52:36.585Z,37.73
2018-07-21T22:55:05.116Z,27.80
2018-07-21T22:57:33.832Z,27.23
2018-07-21T23:00:02.477Z,37.63
2018-07-21T23:02:37.562Z,28.63
2018-07-21T23:08:00.268Z,35.70
2018-07-21T23:10:29.029Z,27.40
2018-07-21T23:12:57.490Z,33.03
2018-07-21T23:15:26.952Z,28.23
2018-07-21T23:17:55.624Z,25.70
2018-07-21T23:20:24.178Z,26.50
2018-07-21T23:22:52.979Z,32.03
2018-07-21T23:25:21.380Z,27.90
2018-07-21T23:27:49.850Z,31.93
2018-07-21T23:30:18.710Z,29.70
2018-07-21T23:32:47.536Z,37.50
2018-07-21T23:35:16.818Z,25.33
2018-07-21T23:37:45.703Z,26.80
2018-07-21T23:40:14.374Z,29.47
2018-07-21T23:42:42.724Z,24.23
2018-07-21T23:45:11.481Z,31.97
2018-07-21T23:47:40.741Z,31.03
2018-07-21T23:50:09.361Z,36.13
2018-07-21T23:52:37.744Z,24.53
2018-07-21T23:55:08.009Z,25.93
2018-07-21T23:57:36.584Z,32.77
